sensor_id;sensor_type;location;lat;lon;timestamp;temperature;humidity
71563;DHT22;59391;52.504;13.438;2023-09-19T00:02:16;21.00;67.60
71563;DHT22;59391;52.504;13.438;2023-09-19T00:04:43;21.00;67.60
71563;DHT22;59391;52.504;13.438;2023-09-19T00:07:09;21.00;67.50
71563;DHT22;59391;52.504;13.438;2023-09-19T00:09:35;21.00;67.60
71563;DHT22;59391;52.504;13.438;2023-09-19T00:12:06;20.90;67.50
71563;DHT22;59391;52.504;13.438;2023-09-19T00:14:32;21.00;67.50
71563;DHT22;59391;52.504;13.438;2023-09-19T00:17:04;20.90;67.50
71563;DHT22;59391;52.504;13.438;2023-09-19T00:19:34;20.90;67.60
71563;DHT22;59391;52.504;13.438;2023-09-19T00:22:01;20.90;67.60
71563;DHT22;59391;52.504;13.438;2023-09-19T00:24:28;20.80;67.60
71563;DHT22;59391;52.504;13.438;2023-09-19T00:26:53;20.80;67.60
71563;DHT22;59391;52.504;13.438;2023-09-19T00:29:21;20.80;67.70
71563;DHT22;59391;52.504;13.438;2023-09-19T00:31:48;20.80;67.70
71563;DHT22;59391;52.504;13.438;2023-09-19T00:34:15;20.80;67.70
71563;DHT22;59391;52.504;13.438;2023-09-19T00:36:42;20.80;67.70
71563;DHT22;59391;52.504;13.438;2023-09-19T00:39:08;20.70;67.70
71563;DHT22;59391;52.504;13.438;2023-09-19T00:41:34;20.70;67.70
71563;DHT22;59391;52.504;13.438;2023-09-19T00:44:03;20.70;67.70
71563;DHT22;59391;52.504;13.438;2023-09-19T00:46:30;20.70;67.80
71563;DHT22;59391;52.504;13.438;2023-09-19T00:48:57;20.70;67.80
71563;DHT22;59391;52.504;13.438;2023-09-19T00:51:25;20.70;67.70
71563;DHT22;59391;52.504;13.438;2023-09-19T00:53:53;20.70;67.70
71563;DHT22;59391;52.504;13.438;2023-09-19T00:56:19;20.70;67.70
71563;DHT22;59391;52.504;13.438;2023-09-19T00:58:46;20.60;67.60
71563;DHT22;59391;52.504;13.438;2023-09-19T01:01:13;20.60;67.70
71563;DHT22;59391;52.504;13.438;2023-09-19T01:03:40;20.60;67.70
71563;DHT22;59391;52.504;13.438;2023-09-19T01:06:07;20.60;67.70
71563;DHT22;59391;52.504;13.438;2023-09-19T01:08:34;20.60;67.70
71563;DHT22;59391;52.504;13.438;2023-09-19T01:11:38;20.60;67.70
71563;DHT22;59391;52.504;13.438;2023-09-19T01:14:31;20.50;67.90
71563;DHT22;59391;52.504;13.438;2023-09-19T01:17:09;20.50;67.90
71563;DHT22;59391;52.504;13.438;2023-09-19T01:19:53;20.50;67.90
71563;DHT22;59391;52.504;13.438;2023-09-19T01:26:05;20.40;68.10
71563;DHT22;59391;52.504;13.438;2023-09-19T01:28:52;20.40;68.20
71563;DHT22;59391;52.504;13.438;2023-09-19T01:31:40;20.30;68.40
71563;DHT22;59391;52.504;13.438;2023-09-19T01:34:08;20.30;68.40
71563;DHT22;59391;52.504;13.438;2023-09-19T01:36:35;20.20;68.50
71563;DHT22;59391;52.504;13.438;2023-09-19T01:39:12;20.20;68.60
71563;DHT22;59391;52.504;13.438;2023-09-19T01:41:59;20.20;68.70
71563;DHT22;59391;52.504;13.438;2023-09-19T01:47:28;20.20;68.80
71563;DHT22;59391;52.504;13.438;2023-09-19T01:50:21;20.20;68.80
71563;DHT22;59391;52.504;13.438;2023-09-19T01:53:19;20.20;68.90
71563;DHT22;59391;52.504;13.438;2023-09-19T01:55:50;20.10;68.90
71563;DHT22;59391;52.504;13.438;2023-09-19T01:58:25;20.20;68.90
71563;DHT22;59391;52.504;13.438;2023-09-19T02:00:56;20.20;68.80
71563;DHT22;59391;52.504;13.438;2023-09-19T02:03:25;20.20;68.80
71563;DHT22;59391;52.504;13.438;2023-09-19T02:05:54;20.20;68.70
71563;DHT22;59391;52.504;13.438;2023-09-19T02:08:21;20.20;68.60
71563;DHT22;59391;52.504;13.438;2023-09-19T02:10:50;20.20;68.60
71563;DHT22;59391;52.504;13.438;2023-09-19T02:13:19;20.20;68.60
71563;DHT22;59391;52.504;13.438;2023-09-19T02:15:46;20.20;68.50
71563;DHT22;59391;52.504;13.438;2023-09-19T02:18:12;20.20;68.40
71563;DHT22;59391;52.504;13.438;2023-09-19T02:20:39;20.20;68.40
71563;DHT22;59391;52.504;13.438;2023-09-19T02:23:05;20.20;68.40
71563;DHT22;59391;52.504;13.438;2023-09-19T02:25:31;20.20;68.40
71563;DHT22;59391;52.504;13.438;2023-09-19T02:27:57;20.10;68.50
71563;DHT22;59391;52.504;13.438;2023-09-19T02:30:29;20.20;68.50
71563;DHT22;59391;52.504;13.438;2023-09-19T02:32:55;20.10;68.50
71563;DHT22;59391;52.504;13.438;2023-09-19T02:35:21;20.10;68.50
71563;DHT22;59391;52.504;13.438;2023-09-19T02:37:47;20.10;68.60
71563;DHT22;59391;52.504;13.438;2023-09-19T02:40:13;20.10;68.70
71563;DHT22;59391;52.504;13.438;2023-09-19T02:42:48;20.10;68.70
71563;DHT22;59391;52.504;13.438;2023-09-19T02:45:18;20.10;68.80
71563;DHT22;59391;52.504;13.438;2023-09-19T02:47:45;20.10;68.70
71563;DHT22;59391;52.504;13.438;2023-09-19T02:50:11;20.10;68.70
71563;DHT22;59391;52.504;13.438;2023-09-19T02:52:38;20.10;68.80
71563;DHT22;59391;52.504;13.438;2023-09-19T02:55:08;20.10;68.80
71563;DHT22;59391;52.504;13.438;2023-09-19T02:57:35;20.10;68.90
71563;DHT22;59391;52.504;13.438;2023-09-19T03:00:08;20.10;68.80
71563;DHT22;59391;52.504;13.438;2023-09-19T03:02:37;20.10;68.80
71563;DHT22;59391;52.504;13.438;2023-09-19T03:05:05;20.10;68.70
71563;DHT22;59391;52.504;13.438;2023-09-19T03:07:32;20.10;68.60
71563;DHT22;59391;52.504;13.438;2023-09-19T03:09:59;20.10;68.60
71563;DHT22;59391;52.504;13.438;2023-09-19T03:12:28;20.10;68.50
71563;DHT22;59391;52.504;13.438;2023-09-19T03:14:53;20.10;68.50
71563;DHT22;59391;52.504;13.438;2023-09-19T03:17:20;20.10;68.30
71563;DHT22;59391;52.504;13.438;2023-09-19T03:19:46;20.10;68.20
71563;DHT22;59391;52.504;13.438;2023-09-19T03:22:13;20.10;68.00
71563;DHT22;59391;52.504;13.438;2023-09-19T03:24:43;20.10;67.90
71563;DHT22;59391;52.504;13.438;2023-09-19T03:27:10;20.10;67.60
71563;DHT22;59391;52.504;13.438;2023-09-19T03:29:36;20.10;67.30
71563;DHT22;59391;52.504;13.438;2023-09-19T03:32:02;20.10;67.00
71563;DHT22;59391;52.504;13.438;2023-09-19T03:34:28;20.10;66.90
71563;DHT22;59391;52.504;13.438;2023-09-19T03:36:54;20.10;66.60
71563;DHT22;59391;52.504;13.438;2023-09-19T03:39:20;20.10;66.40
71563;DHT22;59391;52.504;13.438;2023-09-19T03:41:46;20.20;66.20
71563;DHT22;59391;52.504;13.438;2023-09-19T03:44:12;20.20;65.90
71563;DHT22;59391;52.504;13.438;2023-09-19T03:46:37;20.20;65.80
71563;DHT22;59391;52.504;13.438;2023-09-19T03:49:04;20.20;65.70
71563;DHT22;59391;52.504;13.438;2023-09-19T03:51:29;20.20;65.40
71563;DHT22;59391;52.504;13.438;2023-09-19T03:53:55;20.30;65.20
71563;DHT22;59391;52.504;13.438;2023-09-19T03:56:21;20.30;64.90
71563;DHT22;59391;52.504;13.438;2023-09-19T03:58:47;20.30;64.70
71563;DHT22;59391;52.504;13.438;2023-09-19T04:01:13;20.30;64.40
71563;DHT22;59391;52.504;13.438;2023-09-19T04:03:39;20.30;64.30
71563;DHT22;59391;52.504;13.438;2023-09-19T04:06:14;20.30;64.20
71563;DHT22;59391;52.504;13.438;2023-09-19T04:08:40;20.40;64.20
71563;DHT22;59391;52.504;13.438;2023-09-19T04:11:06;20.40;63.60
71563;DHT22;59391;52.504;13.438;2023-09-19T04:13:31;20.30;63.00
71563;DHT22;59391;52.504;13.438;2023-09-19T04:15:57;20.30;63.00
71563;DHT22;59391;52.504;13.438;2023-09-19T04:18:23;20.30;62.40
71563;DHT22;59391;52.504;13.438;2023-09-19T04:20:52;20.30;62.50
71563;DHT22;59391;52.504;13.438;2023-09-19T04:23:19;20.30;61.40
71563;DHT22;59391;52.504;13.438;2023-09-19T04:25:47;20.30;61.20
71563;DHT22;59391;52.504;13.438;2023-09-19T04:28:13;20.30;60.90
71563;DHT22;59391;52.504;13.438;2023-09-19T04:30:39;20.30;60.70
71563;DHT22;59391;52.504;13.438;2023-09-19T04:33:08;20.30;60.60
71563;DHT22;59391;52.504;13.438;2023-09-19T04:35:33;20.30;60.40
71563;DHT22;59391;52.504;13.438;2023-09-19T04:38:00;20.30;60.10
71563;DHT22;59391;52.504;13.438;2023-09-19T04:40:26;20.30;60.00
71563;DHT22;59391;52.504;13.438;2023-09-19T04:42:57;20.30;59.90
71563;DHT22;59391;52.504;13.438;2023-09-19T04:45:24;20.30;59.80
71563;DHT22;59391;52.504;13.438;2023-09-19T04:47:50;20.30;59.80
71563;DHT22;59391;52.504;13.438;2023-09-19T04:50:16;20.30;59.80
71563;DHT22;59391;52.504;13.438;2023-09-19T04:52:43;20.30;59.70
71563;DHT22;59391;52.504;13.438;2023-09-19T04:55:11;20.30;59.70
71563;DHT22;59391;52.504;13.438;2023-09-19T04:57:43;20.30;59.40
71563;DHT22;59391;52.504;13.438;2023-09-19T05:00:12;20.30;59.30
71563;DHT22;59391;52.504;13.438;2023-09-19T05:02:40;20.30;59.50
71563;DHT22;59391;52.504;13.438;2023-09-19T05:05:08;20.20;59.40
71563;DHT22;59391;52.504;13.438;2023-09-19T05:07:35;20.20;59.50
71563;DHT22;59391;52.504;13.438;2023-09-19T05:10:01;20.20;59.50
71563;DHT22;59391;52.504;13.438;2023-09-19T05:12:34;20.20;59.50
71563;DHT22;59391;52.504;13.438;2023-09-19T05:15:06;20.20;59.40
71563;DHT22;59391;52.504;13.438;2023-09-19T05:17:34;20.20;59.30
71563;DHT22;59391;52.504;13.438;2023-09-19T05:20:01;20.10;58.90
71563;DHT22;59391;52.504;13.438;2023-09-19T05:22:43;20.10;59.80
71563;DHT22;59391;52.504;13.438;2023-09-19T05:25:10;20.10;59.90
71563;DHT22;59391;52.504;13.438;2023-09-19T05:27:36;20.10;59.70
71563;DHT22;59391;52.504;13.438;2023-09-19T05:30:02;20.10;59.90
71563;DHT22;59391;52.504;13.438;2023-09-19T05:32:28;20.00;60.10
71563;DHT22;59391;52.504;13.438;2023-09-19T05:34:54;20.00;59.90
71563;DHT22;59391;52.504;13.438;2023-09-19T05:37:22;20.00;59.40
71563;DHT22;59391;52.504;13.438;2023-09-19T05:39:49;20.00;59.60
71563;DHT22;59391;52.504;13.438;2023-09-19T05:42:14;20.00;59.70
71563;DHT22;59391;52.504;13.438;2023-09-19T05:44:40;19.90;59.40
71563;DHT22;59391;52.504;13.438;2023-09-19T05:47:06;19.90;59.50
71563;DHT22;59391;52.504;13.438;2023-09-19T05:49:37;19.90;59.40
71563;DHT22;59391;52.504;13.438;2023-09-19T05:52:06;19.90;59.40
71563;DHT22;59391;52.504;13.438;2023-09-19T05:54:32;19.90;59.60
71563;DHT22;59391;52.504;13.438;2023-09-19T05:57:00;19.90;59.30
71563;DHT22;59391;52.504;13.438;2023-09-19T05:59:27;19.80;59.30
71563;DHT22;59391;52.504;13.438;2023-09-19T06:01:53;19.90;59.40
71563;DHT22;59391;52.504;13.438;2023-09-19T06:04:18;19.90;59.30
71563;DHT22;59391;52.504;13.438;2023-09-19T06:06:44;19.80;58.80
71563;DHT22;59391;52.504;13.438;2023-09-19T06:09:10;19.90;59.00
71563;DHT22;59391;52.504;13.438;2023-09-19T06:11:36;19.80;59.10
71563;DHT22;59391;52.504;13.438;2023-09-19T06:14:03;19.80;59.20
71563;DHT22;59391;52.504;13.438;2023-09-19T06:16:29;19.80;59.10
71563;DHT22;59391;52.504;13.438;2023-09-19T06:18:57;19.80;59.00
71563;DHT22;59391;52.504;13.438;2023-09-19T06:21:25;19.80;59.10
71563;DHT22;59391;52.504;13.438;2023-09-19T06:23:53;19.70;59.00
71563;DHT22;59391;52.504;13.438;2023-09-19T06:26:19;19.70;59.10
71563;DHT22;59391;52.504;13.438;2023-09-19T06:28:44;19.70;59.10
71563;DHT22;59391;52.504;13.438;2023-09-19T06:31:10;19.70;59.10
71563;DHT22;59391;52.504;13.438;2023-09-19T06:33:37;19.70;59.10
71563;DHT22;59391;52.504;13.438;2023-09-19T06:36:06;19.70;59.20
71563;DHT22;59391;52.504;13.438;2023-09-19T06:38:33;19.70;59.10
71563;DHT22;59391;52.504;13.438;2023-09-19T06:41:02;19.70;58.80
71563;DHT22;59391;52.504;13.438;2023-09-19T06:43:32;19.70;58.90
71563;DHT22;59391;52.504;13.438;2023-09-19T06:46:00;19.70;59.00
71563;DHT22;59391;52.504;13.438;2023-09-19T06:48:27;19.70;59.00
71563;DHT22;59391;52.504;13.438;2023-09-19T06:50:54;19.80;59.00
71563;DHT22;59391;52.504;13.438;2023-09-19T06:53:20;19.80;58.80
71563;DHT22;59391;52.504;13.438;2023-09-19T06:55:49;19.80;58.50
71563;DHT22;59391;52.504;13.438;2023-09-19T06:58:16;19.80;58.70
71563;DHT22;59391;52.504;13.438;2023-09-19T07:00:42;19.90;58.60
71563;DHT22;59391;52.504;13.438;2023-09-19T07:03:08;19.90;58.30
71563;DHT22;59391;52.504;13.438;2023-09-19T07:05:37;19.90;58.60
71563;DHT22;59391;52.504;13.438;2023-09-19T07:08:09;19.90;58.10
71563;DHT22;59391;52.504;13.438;2023-09-19T07:10:38;20.00;57.90
71563;DHT22;59391;52.504;13.438;2023-09-19T07:13:10;20.00;57.80
71563;DHT22;59391;52.504;13.438;2023-09-19T07:15:37;20.10;57.40
71563;DHT22;59391;52.504;13.438;2023-09-19T07:18:07;20.10;57.50
71563;DHT22;59391;52.504;13.438;2023-09-19T07:20:34;20.20;57.70
71563;DHT22;59391;52.504;13.438;2023-09-19T07:23:00;20.20;57.60
71563;DHT22;59391;52.504;13.438;2023-09-19T07:25:26;20.30;57.40
71563;DHT22;59391;52.504;13.438;2023-09-19T07:27:55;20.40;56.80
71563;DHT22;59391;52.504;13.438;2023-09-19T07:30:22;20.50;55.90
71563;DHT22;59391;52.504;13.438;2023-09-19T07:32:48;20.50;55.10
71563;DHT22;59391;52.504;13.438;2023-09-19T07:35:13;20.60;55.50
71563;DHT22;59391;52.504;13.438;2023-09-19T07:37:40;20.60;55.20
71563;DHT22;59391;52.504;13.438;2023-09-19T07:40:06;20.70;54.50
71563;DHT22;59391;52.504;13.438;2023-09-19T07:42:33;20.70;53.90
71563;DHT22;59391;52.504;13.438;2023-09-19T07:45:02;20.80;53.90
71563;DHT22;59391;52.504;13.438;2023-09-19T07:47:28;20.80;54.10
71563;DHT22;59391;52.504;13.438;2023-09-19T07:49:55;20.90;53.90
71563;DHT22;59391;52.504;13.438;2023-09-19T07:52:21;20.90;53.60
71563;DHT22;59391;52.504;13.438;2023-09-19T07:54:48;21.00;53.30
71563;DHT22;59391;52.504;13.438;2023-09-19T07:57:14;21.00;52.10
71563;DHT22;59391;52.504;13.438;2023-09-19T07:59:41;21.10;52.80
71563;DHT22;59391;52.504;13.438;2023-09-19T08:02:08;21.10;52.80
71563;DHT22;59391;52.504;13.438;2023-09-19T08:04:42;21.20;52.60
71563;DHT22;59391;52.504;13.438;2023-09-19T08:07:08;21.30;51.50
71563;DHT22;59391;52.504;13.438;2023-09-19T08:09:34;21.30;51.30
71563;DHT22;59391;52.504;13.438;2023-09-19T08:12:00;21.40;51.10
71563;DHT22;59391;52.504;13.438;2023-09-19T08:14:30;21.40;51.10
71563;DHT22;59391;52.504;13.438;2023-09-19T08:16:59;21.50;51.50
71563;DHT22;59391;52.504;13.438;2023-09-19T08:19:26;21.60;50.70
71563;DHT22;59391;52.504;13.438;2023-09-19T08:21:58;21.70;50.20
71563;DHT22;59391;52.504;13.438;2023-09-19T08:24:30;21.80;50.00
71563;DHT22;59391;52.504;13.438;2023-09-19T08:26:57;22.00;49.70
71563;DHT22;59391;52.504;13.438;2023-09-19T08:29:24;22.10;48.60
71563;DHT22;59391;52.504;13.438;2023-09-19T08:31:54;22.10;47.60
71563;DHT22;59391;52.504;13.438;2023-09-19T08:34:21;22.10;47.60
71563;DHT22;59391;52.504;13.438;2023-09-19T08:36:50;22.10;47.80
71563;DHT22;59391;52.504;13.438;2023-09-19T08:39:16;22.10;47.40
71563;DHT22;59391;52.504;13.438;2023-09-19T08:41:42;22.10;47.40
71563;DHT22;59391;52.504;13.438;2023-09-19T08:44:08;22.10;48.00
71563;DHT22;59391;52.504;13.438;2023-09-19T08:46:37;22.10;48.20
71563;DHT22;59391;52.504;13.438;2023-09-19T08:49:29;22.10;48.10
71563;DHT22;59391;52.504;13.438;2023-09-19T08:52:10;22.20;47.90
71563;DHT22;59391;52.504;13.438;2023-09-19T08:54:47;22.30;46.90
71563;DHT22;59391;52.504;13.438;2023-09-19T08:57:17;22.40;47.00
71563;DHT22;59391;52.504;13.438;2023-09-19T08:59:48;22.50;46.10
71563;DHT22;59391;52.504;13.438;2023-09-19T09:02:17;22.60;46.00
71563;DHT22;59391;52.504;13.438;2023-09-19T09:04:47;22.80;45.70
71563;DHT22;59391;52.504;13.438;2023-09-19T09:07:14;22.90;45.30
71563;DHT22;59391;52.504;13.438;2023-09-19T09:09:42;23.00;44.50
71563;DHT22;59391;52.504;13.438;2023-09-19T09:12:11;23.10;44.30
71563;DHT22;59391;52.504;13.438;2023-09-19T09:14:39;23.10;44.20
71563;DHT22;59391;52.504;13.438;2023-09-19T09:17:05;23.20;43.90
71563;DHT22;59391;52.504;13.438;2023-09-19T09:19:32;23.30;43.70
71563;DHT22;59391;52.504;13.438;2023-09-19T09:22:08;23.30;43.10
71563;DHT22;59391;52.504;13.438;2023-09-19T09:24:34;23.40;43.30
71563;DHT22;59391;52.504;13.438;2023-09-19T09:27:04;23.50;43.50
71563;DHT22;59391;52.504;13.438;2023-09-19T09:29:45;23.60;43.90
71563;DHT22;59391;52.504;13.438;2023-09-19T09:35:00;24.00;42.60
71563;DHT22;59391;52.504;13.438;2023-09-19T09:37:27;24.20;42.40
71563;DHT22;59391;52.504;13.438;2023-09-19T09:39:59;24.30;41.90
71563;DHT22;59391;52.504;13.438;2023-09-19T09:42:44;24.40;41.80
71563;DHT22;59391;52.504;13.438;2023-09-19T09:45:22;24.40;41.00
71563;DHT22;59391;52.504;13.438;2023-09-19T09:47:58;24.50;40.60
71563;DHT22;59391;52.504;13.438;2023-09-19T09:50:47;24.40;40.40
71563;DHT22;59391;52.504;13.438;2023-09-19T09:53:26;24.30;40.90
71563;DHT22;59391;52.504;13.438;2023-09-19T09:56:03;24.40;41.40
71563;DHT22;59391;52.504;13.438;2023-09-19T09:58:51;24.50;41.30
71563;DHT22;59391;52.504;13.438;2023-09-19T10:01:24;24.80;40.70
71563;DHT22;59391;52.504;13.438;2023-09-19T10:03:57;25.00;39.30
71563;DHT22;59391;52.504;13.438;2023-09-19T10:06:25;25.30;38.50
71563;DHT22;59391;52.504;13.438;2023-09-19T10:09:02;25.50;37.00
71563;DHT22;59391;52.504;13.438;2023-09-19T10:11:44;25.70;36.60
71563;DHT22;59391;52.504;13.438;2023-09-19T10:14:15;25.90;36.70
71563;DHT22;59391;52.504;13.438;2023-09-19T10:16:46;26.10;36.60
71563;DHT22;59391;52.504;13.438;2023-09-19T10:19:21;26.30;35.30
71563;DHT22;59391;52.504;13.438;2023-09-19T10:22:14;26.50;35.30
71563;DHT22;59391;52.504;13.438;2023-09-19T10:24:47;26.60;34.90
71563;DHT22;59391;52.504;13.438;2023-09-19T10:27:15;26.70;34.10
71563;DHT22;59391;52.504;13.438;2023-09-19T10:29:43;26.80;34.30
71563;DHT22;59391;52.504;13.438;2023-09-19T10:32:13;26.70;34.10
71563;DHT22;59391;52.504;13.438;2023-09-19T10:34:48;26.80;34.00
71563;DHT22;59391;52.504;13.438;2023-09-19T10:37:16;26.80;34.10
71563;DHT22;59391;52.504;13.438;2023-09-19T10:39:49;26.70;33.90
71563;DHT22;59391;52.504;13.438;2023-09-19T10:42:19;26.60;33.50
71563;DHT22;59391;52.504;13.438;2023-09-19T10:44:47;26.50;33.80
71563;DHT22;59391;52.504;13.438;2023-09-19T10:47:19;26.40;33.90
71563;DHT22;59391;52.504;13.438;2023-09-19T10:49:47;26.30;34.10
71563;DHT22;59391;52.504;13.438;2023-09-19T10:52:14;26.20;34.30
71563;DHT22;59391;52.504;13.438;2023-09-19T10:54:49;26.10;34.60
71563;DHT22;59391;52.504;13.438;2023-09-19T10:57:21;26.10;33.70
71563;DHT22;59391;52.504;13.438;2023-09-19T11:00:09;26.00;33.50
71563;DHT22;59391;52.504;13.438;2023-09-19T11:03:22;25.90;33.20
71563;DHT22;59391;52.504;13.438;2023-09-19T11:06:12;25.80;33.90
71563;DHT22;59391;52.504;13.438;2023-09-19T11:08:59;25.90;33.50
71563;DHT22;59391;52.504;13.438;2023-09-19T11:11:39;25.90;32.60
71563;DHT22;59391;52.504;13.438;2023-09-19T11:30:35;25.90;33.40
71563;DHT22;59391;52.504;13.438;2023-09-19T11:33:23;26.00;32.50
71563;DHT22;59391;52.504;13.438;2023-09-19T11:49:18;26.00;32.30
71563;DHT22;59391;52.504;13.438;2023-09-19T11:51:51;25.90;32.50
71563;DHT22;59391;52.504;13.438;2023-09-19T11:54:17;25.90;32.80
71563;DHT22;59391;52.504;13.438;2023-09-19T11:56:44;25.80;33.10
71563;DHT22;59391;52.504;13.438;2023-09-19T11:59:11;25.60;33.40
71563;DHT22;59391;52.504;13.438;2023-09-19T12:01:51;25.50;33.30
71563;DHT22;59391;52.504;13.438;2023-09-19T12:04:37;25.40;33.20
71563;DHT22;59391;52.504;13.438;2023-09-19T12:07:11;25.30;33.20
71563;DHT22;59391;52.504;13.438;2023-09-19T12:09:45;25.30;33.00
71563;DHT22;59391;52.504;13.438;2023-09-19T12:12:24;25.20;32.10
71563;DHT22;59391;52.504;13.438;2023-09-19T12:14:54;25.00;32.70
71563;DHT22;59391;52.504;13.438;2023-09-19T12:17:22;24.90;33.30
71563;DHT22;59391;52.504;13.438;2023-09-19T12:19:56;24.80;33.90
71563;DHT22;59391;52.504;13.438;2023-09-19T12:22:22;24.80;34.00
71563;DHT22;59391;52.504;13.438;2023-09-19T12:24:48;24.80;33.80
71563;DHT22;59391;52.504;13.438;2023-09-19T12:27:16;24.90;33.30
71563;DHT22;59391;52.504;13.438;2023-09-19T12:29:46;24.90;33.10
71563;DHT22;59391;52.504;13.438;2023-09-19T12:32:34;24.90;32.80
71563;DHT22;59391;52.504;13.438;2023-09-19T12:35:01;24.90;33.40
71563;DHT22;59391;52.504;13.438;2023-09-19T12:37:32;24.90;32.70
71563;DHT22;59391;52.504;13.438;2023-09-19T12:40:08;24.90;32.50
71563;DHT22;59391;52.504;13.438;2023-09-19T12:42:48;24.80;32.30
71563;DHT22;59391;52.504;13.438;2023-09-19T12:45:17;24.80;32.60
71563;DHT22;59391;52.504;13.438;2023-09-19T12:48:18;24.80;33.10
71563;DHT22;59391;52.504;13.438;2023-09-19T12:51:01;24.70;32.50
71563;DHT22;59391;52.504;13.438;2023-09-19T12:53:39;24.70;33.00
71563;DHT22;59391;52.504;13.438;2023-09-19T12:56:10;24.80;33.30
71563;DHT22;59391;52.504;13.438;2023-09-19T12:58:53;24.70;33.10
71563;DHT22;59391;52.504;13.438;2023-09-19T13:01:20;24.70;33.10
71563;DHT22;59391;52.504;13.438;2023-09-19T13:04:11;24.70;33.30
71563;DHT22;59391;52.504;13.438;2023-09-19T13:06:37;24.70;33.40
71563;DHT22;59391;52.504;13.438;2023-09-19T13:09:09;24.70;33.50
71563;DHT22;59391;52.504;13.438;2023-09-19T13:11:37;24.60;33.60
71563;DHT22;59391;52.504;13.438;2023-09-19T13:17:07;24.60;33.90
71563;DHT22;59391;52.504;13.438;2023-09-19T13:19:48;24.50;33.80
71563;DHT22;59391;52.504;13.438;2023-09-19T13:22:41;24.50;33.90
71563;DHT22;59391;52.504;13.438;2023-09-19T13:25:16;24.40;33.70
71563;DHT22;59391;52.504;13.438;2023-09-19T13:27:49;24.30;33.70
71563;DHT22;59391;52.504;13.438;2023-09-19T13:30:20;24.20;33.60
71563;DHT22;59391;52.504;13.438;2023-09-19T13:32:48;24.10;34.20
71563;DHT22;59391;52.504;13.438;2023-09-19T13:35:15;24.00;34.10
71563;DHT22;59391;52.504;13.438;2023-09-19T13:37:42;23.90;34.70
71563;DHT22;59391;52.504;13.438;2023-09-19T13:40:12;23.90;34.80
71563;DHT22;59391;52.504;13.438;2023-09-19T13:42:40;23.90;34.80
71563;DHT22;59391;52.504;13.438;2023-09-19T13:45:06;24.00;35.00
71563;DHT22;59391;52.504;13.438;2023-09-19T13:47:33;24.00;34.80
71563;DHT22;59391;52.504;13.438;2023-09-19T13:49:59;23.90;34.80
71563;DHT22;59391;52.504;13.438;2023-09-19T13:52:29;23.90;34.50
71563;DHT22;59391;52.504;13.438;2023-09-19T13:54:58;23.90;35.00
71563;DHT22;59391;52.504;13.438;2023-09-19T13:57:25;23.80;35.20
71563;DHT22;59391;52.504;13.438;2023-09-19T13:59:52;23.80;34.50
71563;DHT22;59391;52.504;13.438;2023-09-19T14:02:20;23.80;34.70
71563;DHT22;59391;52.504;13.438;2023-09-19T14:04:50;23.70;34.90
71563;DHT22;59391;52.504;13.438;2023-09-19T14:07:17;23.60;35.20
71563;DHT22;59391;52.504;13.438;2023-09-19T14:09:44;23.60;35.10
71563;DHT22;59391;52.504;13.438;2023-09-19T14:12:10;23.50;35.00
71563;DHT22;59391;52.504;13.438;2023-09-19T14:14:38;23.50;35.60
71563;DHT22;59391;52.504;13.438;2023-09-19T14:17:10;23.50;35.40
71563;DHT22;59391;52.504;13.438;2023-09-19T14:19:41;23.60;35.60
71563;DHT22;59391;52.504;13.438;2023-09-19T14:22:09;23.60;35.60
71563;DHT22;59391;52.504;13.438;2023-09-19T14:24:35;23.70;35.70
71563;DHT22;59391;52.504;13.438;2023-09-19T14:27:01;23.70;35.30
71563;DHT22;59391;52.504;13.438;2023-09-19T14:29:30;23.80;35.00
71563;DHT22;59391;52.504;13.438;2023-09-19T14:31:56;23.70;35.10
71563;DHT22;59391;52.504;13.438;2023-09-19T14:34:23;23.70;35.40
71563;DHT22;59391;52.504;13.438;2023-09-19T14:36:48;23.70;35.40
71563;DHT22;59391;52.504;13.438;2023-09-19T14:39:14;23.60;35.30
71563;DHT22;59391;52.504;13.438;2023-09-19T14:41:39;23.60;35.50
71563;DHT22;59391;52.504;13.438;2023-09-19T14:44:05;23.60;35.50
71563;DHT22;59391;52.504;13.438;2023-09-19T14:46:31;23.50;35.80
71563;DHT22;59391;52.504;13.438;2023-09-19T14:48:56;23.60;35.60
71563;DHT22;59391;52.504;13.438;2023-09-19T14:51:25;23.50;36.00
71563;DHT22;59391;52.504;13.438;2023-09-19T14:53:51;23.50;36.00
71563;DHT22;59391;52.504;13.438;2023-09-19T14:56:16;23.50;36.20
71563;DHT22;59391;52.504;13.438;2023-09-19T14:58:47;23.50;35.50
71563;DHT22;59391;52.504;13.438;2023-09-19T15:01:13;23.50;35.20
71563;DHT22;59391;52.504;13.438;2023-09-19T15:03:41;23.50;35.50
71563;DHT22;59391;52.504;13.438;2023-09-19T15:06:10;23.40;35.30
71563;DHT22;59391;52.504;13.438;2023-09-19T15:08:45;23.40;35.20
71563;DHT22;59391;52.504;13.438;2023-09-19T15:11:16;23.30;35.50
71563;DHT22;59391;52.504;13.438;2023-09-19T15:13:43;23.20;35.50
71563;DHT22;59391;52.504;13.438;2023-09-19T15:16:11;23.20;35.60
71563;DHT22;59391;52.504;13.438;2023-09-19T15:18:39;23.10;36.00
71563;DHT22;59391;52.504;13.438;2023-09-19T15:21:11;23.10;36.10
71563;DHT22;59391;52.504;13.438;2023-09-19T15:23:40;23.10;35.60
71563;DHT22;59391;52.504;13.438;2023-09-19T15:26:08;23.10;35.80
71563;DHT22;59391;52.504;13.438;2023-09-19T15:28:36;23.10;36.00
71563;DHT22;59391;52.504;13.438;2023-09-19T15:31:04;23.10;36.00
71563;DHT22;59391;52.504;13.438;2023-09-19T15:33:32;23.10;35.90
71563;DHT22;59391;52.504;13.438;2023-09-19T15:36:15;23.10;36.00
71563;DHT22;59391;52.504;13.438;2023-09-19T15:38:55;23.10;36.00
71563;DHT22;59391;52.504;13.438;2023-09-19T15:41:35;23.10;36.10
71563;DHT22;59391;52.504;13.438;2023-09-19T15:44:14;23.10;36.20
71563;DHT22;59391;52.504;13.438;2023-09-19T15:46:41;23.10;36.10
71563;DHT22;59391;52.504;13.438;2023-09-19T15:49:08;23.10;36.20
71563;DHT22;59391;52.504;13.438;2023-09-19T15:51:35;23.10;36.30
71563;DHT22;59391;52.504;13.438;2023-09-19T15:54:08;23.20;36.40
71563;DHT22;59391;52.504;13.438;2023-09-19T15:56:46;23.20;36.60
71563;DHT22;59391;52.504;13.438;2023-09-19T15:59:16;23.10;36.60
71563;DHT22;59391;52.504;13.438;2023-09-19T16:01:44;23.20;36.90
71563;DHT22;59391;52.504;13.438;2023-09-19T16:04:10;23.20;36.60
71563;DHT22;59391;52.504;13.438;2023-09-19T16:06:38;23.20;36.70
71563;DHT22;59391;52.504;13.438;2023-09-19T16:09:06;23.20;37.00
71563;DHT22;59391;52.504;13.438;2023-09-19T16:11:34;23.20;36.80
71563;DHT22;59391;52.504;13.438;2023-09-19T16:14:03;23.20;37.00
71563;DHT22;59391;52.504;13.438;2023-09-19T16:16:31;23.20;36.90